Aérodrome :
LOGIN :

S'inscrire | Disclaimer

   EN    FR    IT 

 










Légende :    VFR   VFR Marginal   IFR   IFR Intensif   IFR Très Intensif
Visi : 
Plafond : 
>= 8 km
>= 3000ft
5 à 8 km
1000 à 3000 ft
1500m à 5 km
500 à 1000 ft
800 à 1500m
200 à 500 ft
< 800m
< 200 ft
Symboles :   Orages  Brouillard  Fortes neiges  Fortes précipitations  Vent > 20 kt
SIGMETs :   Divers  Orages  Givrage  Turbulence  Onde Orograph.  Cendres Volcan.







- Altitude de l'aérodrome : 56 ft
- Code IATA : ILY
- Voir les cartes d'approche


EGPI - Islay

DERNIER METAR :
  • 292050Z AUTO 12014KT 9999 NCD 09/05 Q1006

METARs EXPIRÉS :
  • 292020Z AUTO 14021KT 9999 NCD 10/05 Q1006
  • 291950Z AUTO 14019KT 110V180 9999 NCD 09/05 Q1006
  • 291920Z AUTO 14022KT 110V170 9999 NCD 10/05 Q1006
  • 291850Z AUTO 14024G35KT 100V170 9999 NCD 10/06 Q1006
  • 291820Z AUTO 13021KT 100V160 9999 NCD 10/06 Q1006

Prévision TAF périmée.
Pas de NOTAMs connus pour ce terrain.



MET'MAP, la Météo Aéronautique d'un coup d'oeil ! - Copyright ORBIFLY Décembre 2007 - Disclaimer

ORBIFLY MET'MAP TEAM :

Programmation & Développement : Alexandra Zaïnal
Conception & Développement : Baudouin d'Aumeries
Co-Programmation & Développement : Marc-Olivier Méhu
Soutien technique & logistique : Manuel Goepfert

Contact : metmap@orbifly.com




SOURCES & CREDITS :

   NOAA